Time;durP1;ratioP1;P1;durP2;ratioP2;P2;SDS_P1;SDS_P2;PMS_P1;PMS_P2;Temp;Humidity;BMP_temperature;BMP_pressure;BME280_temperature;BME280_humidity;BME280_pressure;Samples;Min_cycle;Max_cycle;Signal;HPM_P1;HPM_P2
2023/11/20 00:02:12;;;;;;;;;;;;;;;12.25;100.00;100683.75;5013057;28;20407;-40
2023/11/20 00:04:37;;;;;;;;;;;;;;;12.24;100.00;100681.25;5012820;28;19909;-40
2023/11/20 00:07:05;;;;;;;;;;;;;;;12.21;100.00;100677.06;5014249;28;19920;-39
2023/11/20 00:09:30;;;;;;;;;;;;;;;12.17;100.00;100683.91;5026097;28;20404;-40
2023/11/20 00:11:55;;;;;;;;;;;;;;;12.20;100.00;100658.41;5012976;28;19917;-40
2023/11/20 00:14:21;;;;;;;;;;;;;;;12.19;100.00;100678.28;5013068;28;19951;-40
2023/11/20 00:16:46;;;;;;;;;;;;;;;12.19;100.00;100686.38;5012870;28;19948;-41
2023/11/20 00:19:11;;;;;;;;;;;;;;;12.18;100.00;100671.25;5012857;28;20499;-39
2023/11/20 00:21:40;;;;;;;;;;;;;;;12.18;100.00;100677.47;5012820;28;20303;-41
2023/11/20 00:24:06;;;;;;;;;;;;;;;12.16;100.00;100681.38;5029376;28;20401;-41
2023/11/20 00:26:32;;;;;;;;;;;;;;;12.17;100.00;100691.16;5033879;28;19962;-40
2023/11/20 00:28:58;;;;;;;;;;;;;;;12.18;100.00;100692.81;5034350;28;20007;-40
2023/11/20 00:31:24;;;;;;;;;;;;;;;12.14;100.00;100689.69;5034424;28;19913;-40
2023/11/20 00:33:49;;;;;;;;;;;;;;;12.11;100.00;100689.22;5035139;28;19924;-40
2023/11/20 00:36:14;;;;;;;;;;;;;;;12.05;100.00;100688.16;5038113;28;19982;-41
2023/11/20 00:38:39;;;;;;;;;;;;;;;12.04;100.00;100692.72;5036281;28;19941;-40
2023/11/20 00:41:05;;;;;;;;;;;;;;;11.99;100.00;100699.75;5035603;28;20051;-39
2023/11/20 00:43:31;;;;;;;;;;;;;;;11.96;100.00;100698.25;5054990;28;19912;-40
2023/11/20 00:45:56;;;;;;;;;;;;;;;11.92;100.00;100694.28;5055125;28;19917;-38
2023/11/20 00:48:22;;;;;;;;;;;;;;;11.88;100.00;100702.97;5056272;28;19959;-40
2023/11/20 00:50:47;;;;;;;;;;;;;;;11.92;100.00;100699.66;5055197;28;19912;-39
2023/11/20 00:53:12;;;;;;;;;;;;;;;11.87;100.00;100707.50;5056349;28;19920;-40
2023/11/20 00:55:37;;;;;;;;;;;;;;;11.84;100.00;100707.88;5055887;28;19912;-40
2023/11/20 00:58:02;;;;;;;;;;;;;;;11.83;100.00;100717.00;5042413;28;19920;-40
2023/11/20 01:00:28;;;;;;;;;;;;;;;11.81;100.00;100721.75;5054937;28;20291;-40
2023/11/20 01:02:53;;;;;;;;;;;;;;;11.79;100.00;100715.69;5055235;28;20355;-40
2023/11/20 01:05:19;;;;;;;;;;;;;;;11.73;100.00;100721.88;5056249;28;20268;-40
2023/11/20 01:07:44;;;;;;;;;;;;;;;11.74;100.00;100723.53;5056829;28;20325;-42
2023/11/20 01:10:09;;;;;;;;;;;;;;;11.68;100.00;100725.13;5056149;28;19919;-39
2023/11/20 01:12:34;;;;;;;;;;;;;;;11.70;100.00;100724.97;5055566;28;19912;-40
2023/11/20 01:15:00;;;;;;;;;;;;;;;11.68;100.00;100730.53;5056042;28;19923;-38
2023/11/20 01:17:25;;;;;;;;;;;;;;;11.65;100.00;100736.31;5055085;28;20007;-38
2023/11/20 01:19:50;;;;;;;;;;;;;;;11.58;100.00;100741.63;5056091;28;19986;-40
2023/11/20 01:22:15;;;;;;;;;;;;;;;11.59;100.00;100740.59;5055491;28;19952;-40
2023/11/20 01:24:41;;;;;;;;;;;;;;;11.60;100.00;100742.25;5047485;28;19917;-40
2023/11/20 01:27:06;;;;;;;;;;;;;;;11.61;100.00;100743.94;5051937;28;19939;-39
2023/11/20 01:29:32;;;;;;;;;;;;;;;11.61;100.00;100748.47;5049983;28;19916;-41
2023/11/20 01:31:57;;;;;;;;;;;;;;;11.63;100.00;100754.53;5055755;28;20336;-40
2023/11/20 01:34:22;;;;;;;;;;;;;;;11.59;100.00;100748.69;5057749;28;20268;-40
2023/11/20 01:36:48;;;;;;;;;;;;;;;11.54;100.00;100761.91;5049701;28;20349;-41
2023/11/20 01:39:13;;;;;;;;;;;;;;;11.53;100.00;100757.56;5053568;28;19978;-38
2023/11/20 01:41:38;;;;;;;;;;;;;;;11.55;100.00;100757.34;5039674;28;20343;-41
2023/11/20 01:44:04;;;;;;;;;;;;;;;11.55;100.00;100747.38;5036469;28;19924;-40
2023/11/20 01:46:29;;;;;;;;;;;;;;;11.56;100.00;100764.44;5049790;28;19916;-39
2023/11/20 01:48:55;;;;;;;;;;;;;;;11.56;100.00;100757.16;5053703;28;19942;-40
2023/11/20 01:51:20;;;;;;;;;;;;;;;11.61;100.00;100757.44;5039803;28;19928;-40
2023/11/20 01:53:45;;;;;;;;;;;;;;;11.63;100.00;100749.13;5045801;28;19917;-40
2023/11/20 01:56:10;;;;;;;;;;;;;;;11.68;100.00;100745.88;5047676;28;20189;-38
2023/11/20 01:58:36;;;;;;;;;;;;;;;11.63;100.00;100736.47;5040514;28;19916;-40
2023/11/20 02:01:01;;;;;;;;;;;;;;;11.65;100.00;100747.09;5049088;28;19921;-41
2023/11/20 02:03:26;;;;;;;;;;;;;;;11.67;100.00;100749.59;5042771;28;19917;-39
2023/11/20 02:05:51;;;;;;;;;;;;;;;11.68;100.00;100740.47;5039709;28;20383;-40
2023/11/20 02:08:17;;;;;;;;;;;;;;;11.67;100.00;100742.34;5053160;28;20412;-41
2023/11/20 02:10:43;;;;;;;;;;;;;;;11.70;100.00;100735.75;5052591;28;19916;-40
2023/11/20 02:13:09;;;;;;;;;;;;;;;11.70;100.00;100735.75;5059315;28;19913;-41
2023/11/20 02:15:34;;;;;;;;;;;;;;;11.69;100.00;100737.59;5053873;28;20481;-41
2023/11/20 02:17:59;;;;;;;;;;;;;;;11.70;100.00;100733.03;5052833;28;19913;-40
2023/11/20 02:20:24;;;;;;;;;;;;;;;11.67;100.00;100739.66;5039663;28;20374;-40
2023/11/20 02:22:50;;;;;;;;;;;;;;;11.67;100.00;100728.03;5054374;28;20387;-41
2023/11/20 02:25:16;;;;;;;;;;;;;;;11.66;100.00;100732.56;5043668;28;20010;-40
2023/11/20 02:27:52;;;;;;;;;;;;;;;11.63;100.00;100733.78;5042241;28;19917;-40
2023/11/20 02:30:18;;;;;;;;;;;;;;;11.68;100.00;100737.78;5027143;28;19917;-40
2023/11/20 02:32:43;;;;;;;;;;;;;;;11.64;100.00;100729.25;5037997;28;19958;-40
2023/11/20 02:35:17;;;;;;;;;;;;;;;11.64;100.00;100730.09;5035851;28;19960;-40
2023/11/20 02:37:43;;;;;;;;;;;;;;;11.64;100.00;100738.19;5033868;28;20071;-40
2023/11/20 02:40:10;;;;;;;;;;;;;;;11.63;100.00;100725.69;5032767;28;20402;-40
2023/11/20 02:42:35;;;;;;;;;;;;;;;11.64;100.00;100723.88;5033698;28;19923;-40
2023/11/20 02:45:00;;;;;;;;;;;;;;;11.65;100.00;100731.75;5034732;28;19913;-40
2023/11/20 02:47:26;;;;;;;;;;;;;;;11.65;100.00;100723.66;5034258;28;20335;-40
2023/11/20 02:49:51;;;;;;;;;;;;;;;11.64;100.00;100729.25;5034600;28;19913;-40
2023/11/20 02:52:17;;;;;;;;;;;;;;;11.64;100.00;100724.69;5034504;28;19913;-40
2023/11/20 02:54:44;;;;;;;;;;;;;;;11.64;100.00;100726.56;5036261;28;20012;-40
2023/11/20 02:57:09;;;;;;;;;;;;;;;11.61;100.00;100733.16;5034853;28;19917;-40
2023/11/20 02:59:34;;;;;;;;;;;;;;;11.59;100.00;100729.81;5035548;28;19920;-39
2023/11/20 03:02:01;;;;;;;;;;;;;;;11.62;100.00;100742.91;5040478;28;19917;-39
2023/11/20 03:04:26;;;;;;;;;;;;;;;11.62;100.00;100737.53;5038544;28;19980;-40
2023/11/20 03:06:52;;;;;;;;;;;;;;;11.60;100.00;100733.34;5037137;28;19959;-40
2023/11/20 03:09:17;;;;;;;;;;;;;;;11.59;100.00;100735.22;5039026;28;19913;-41
2023/11/20 03:11:42;;;;;;;;;;;;;;;11.59;100.00;100737.09;5038471;28;19923;-41
2023/11/20 03:14:08;;;;;;;;;;;;;;;11.55;100.00;100731.22;5039458;28;19913;-40
2023/11/20 03:16:33;;;;;;;;;;;;;;;11.57;100.00;100731.88;5037764;28;19917;-40
2023/11/20 03:18:59;;;;;;;;;;;;;;;11.57;100.00;100734.56;5032842;28;19912;-40
2023/11/20 03:21:24;;;;;;;;;;;;;;;11.59;100.00;100731.69;5032977;28;20280;-41
2023/11/20 03:23:50;;;;;;;;;;;;;;;11.60;100.00;100734.19;5032496;28;20394;-39
2023/11/20 03:26:20;;;;;;;;;;;;;;;11.62;100.00;100731.31;5040476;28;20050;-40
2023/11/20 03:28:46;;;;;;;;;;;;;;;11.60;100.00;100736.03;5052777;28;19909;-40
2023/11/20 03:31:12;;;;;;;;;;;;;;;11.64;100.00;100734.66;5053654;28;19920;-40
2023/11/20 03:33:37;;;;;;;;;;;;;;;11.63;100.00;100728.41;5039276;28;19913;-40
2023/11/20 03:36:03;;;;;;;;;;;;;;;11.63;100.00;100739.19;5037034;28;20024;-41
2023/11/20 03:38:28;;;;;;;;;;;;;;;11.61;100.00;100732.31;5038889;28;19932;-41
2023/11/20 03:40:54;;;;;;;;;;;;;;;11.60;100.00;100730.66;5038941;28;19989;-41
2023/11/20 03:43:21;;;;;;;;;;;;;;;11.58;100.00;100730.84;5038310;28;19941;-40
2023/11/20 03:45:46;;;;;;;;;;;;;;;11.59;100.00;100731.69;5033622;28;19920;-40
2023/11/20 03:48:12;;;;;;;;;;;;;;;11.58;100.00;100719.22;5033564;28;19924;-40
2023/11/20 03:50:37;;;;;;;;;;;;;;;11.57;100.00;100718.38;5033252;28;19924;-41
2023/11/20 03:53:02;;;;;;;;;;;;;;;11.59;100.00;100724.44;5038537;28;19920;-40
2023/11/20 03:55:27;;;;;;;;;;;;;;;11.60;100.00;100723.41;5045610;28;19963;-41
2023/11/20 03:57:52;;;;;;;;;;;;;;;11.60;100.00;100727.97;5038009;28;19913;-40
2023/11/20 04:00:18;;;;;;;;;;;;;;;11.59;100.00;100726.31;5038451;28;20024;-40
2023/11/20 04:02:43;;;;;;;;;;;;;;;11.59;100.00;100723.59;5035601;28;19960;-39
2023/11/20 04:05:09;;;;;;;;;;;;;;;11.61;100.00;100721.53;5031878;28;19966;-40
2023/11/20 04:07:34;;;;;;;;;;;;;;;11.59;100.00;100727.13;5032871;28;19913;-41
2023/11/20 04:09:59;;;;;;;;;;;;;;;11.57;100.00;100729.16;5033166;28;20256;-41
2023/11/20 04:12:26;;;;;;;;;;;;;;;11.59;100.00;100727.13;5034645;28;20294;-41
2023/11/20 04:14:52;;;;;;;;;;;;;;;11.58;100.00;100725.44;5032236;28;19920;-40
2023/11/20 04:17:17;;;;;;;;;;;;;;;11.56;100.00;100732.91;5035870;28;19913;-40
2023/11/20 04:19:42;;;;;;;;;;;;;;;11.57;100.00;100733.72;5033372;28;19959;-40
2023/11/20 04:22:07;;;;;;;;;;;;;;;11.54;100.00;100732.25;5032469;28;19974;-41
2023/11/20 04:24:32;;;;;;;;;;;;;;;11.51;100.00;100729.13;5032711;28;19971;-41
2023/11/20 04:26:58;;;;;;;;;;;;;;;11.47;100.00;100736.72;5032394;28;19952;-40
2023/11/20 04:29:23;;;;;;;;;;;;;;;11.46;100.00;100721.59;5032319;28;19995;-40
2023/11/20 04:31:48;;;;;;;;;;;;;;;11.44;100.00;100726.34;5032543;28;19913;-41
2023/11/20 04:34:13;;;;;;;;;;;;;;;11.47;100.00;100733.22;5032271;28;20115;-40
2023/11/20 04:36:39;;;;;;;;;;;;;;;11.48;100.00;100730.34;5047795;28;19916;-41
2023/11/20 04:39:04;;;;;;;;;;;;;;;11.42;100.00;100720.28;5050842;28;19913;-40
2023/11/20 04:41:30;;;;;;;;;;;;;;;11.40;100.00;100716.94;5048130;28;19917;-39
2023/11/20 04:43:55;;;;;;;;;;;;;;;11.41;100.00;100718.63;5038262;28;19917;-38
2023/11/20 04:46:20;;;;;;;;;;;;;;;11.40;100.00;100716.94;5043821;28;19917;-40
2023/11/20 04:48:45;;;;;;;;;;;;;;;11.39;100.00;100729.59;5047224;28;19924;-41
2023/11/20 04:51:18;;;;;;;;;;;;;;;11.41;100.00;100715.94;5048470;28;19921;-40
2023/11/20 04:53:44;;;;;;;;;;;;;;;11.36;100.00;100726.47;5036772;28;19920;-41
2023/11/20 04:56:09;;;;;;;;;;;;;;;11.32;100.00;100735.94;5032472;28;19921;-40
2023/11/20 04:58:35;;;;;;;;;;;;;;;11.29;100.00;100725.53;5030760;28;21091;-40
2023/11/20 05:01:02;;;;;;;;;;;;;;;11.30;100.00;100721.84;5037739;28;19924;-40
2023/11/20 05:03:28;;;;;;;;;;;;;;;11.27;100.00;100724.88;5050107;28;19944;-40
2023/11/20 05:05:53;;;;;;;;;;;;;;;11.26;100.00;100726.75;5050561;28;19971;-40
2023/11/20 05:08:18;;;;;;;;;;;;;;;11.25;100.00;100729.66;5039132;28;19917;-41
2023/11/20 05:10:44;;;;;;;;;;;;;;;11.23;100.00;100731.69;5030709;28;19917;-41
2023/11/20 05:13:10;;;;;;;;;;;;;;;11.23;100.00;100720.91;5033090;28;19913;-39
2023/11/20 05:15:35;;;;;;;;;;;;;;;11.23;100.00;100727.13;5033101;28;19981;-41
2023/11/20 05:18:01;;;;;;;;;;;;;;;11.21;100.00;100738.09;5045973;28;19958;-41
2023/11/20 05:20:26;;;;;;;;;;;;;;;11.14;100.00;100731.81;5049367;28;20019;-41
2023/11/20 05:22:52;;;;;;;;;;;;;;;11.11;100.00;100736.72;5051607;28;20062;-39
2023/11/20 05:25:17;;;;;;;;;;;;;;;11.05;100.00;100726.69;5053438;28;19948;-41
2023/11/20 05:27:42;;;;;;;;;;;;;;;11.05;100.00;100741.00;5051696;28;19924;-41
2023/11/20 05:30:08;;;;;;;;;;;;;;;11.03;100.00;100737.66;5053086;28;20335;-40
2023/11/20 05:32:33;;;;;;;;;;;;;;;11.03;100.00;100748.41;5053405;28;20381;-38
2023/11/20 05:34:59;;;;;;;;;;;;;;;11.02;100.00;100736.00;5051650;28;19916;-40
2023/11/20 05:37:24;;;;;;;;;;;;;;;11.02;100.00;100746.75;5033271;28;19917;-41
2023/11/20 05:39:50;;;;;;;;;;;;;;;11.03;100.00;100743.03;5034377;28;20386;-41
2023/11/20 05:42:15;;;;;;;;;;;;;;;11.03;100.00;100742.19;5041902;28;20283;-41
2023/11/20 05:44:41;;;;;;;;;;;;;;;11.04;100.00;100739.34;5038039;28;19936;-42
2023/11/20 05:47:07;;;;;;;;;;;;;;;11.04;100.00;100739.34;5035498;28;19913;-39
2023/11/20 05:49:32;;;;;;;;;;;;;;;11.03;100.00;100737.66;5033954;28;20114;-41
2023/11/20 05:51:57;;;;;;;;;;;;;;;11.04;100.00;100754.66;5037644;28;19975;-39
2023/11/20 05:54:22;;;;;;;;;;;;;;;11.02;100.00;100751.31;5036803;28;19943;-41
2023/11/20 05:56:48;;;;;;;;;;;;;;;11.01;100.00;100739.72;5037302;28;19917;-41
2023/11/20 05:59:13;;;;;;;;;;;;;;;11.01;100.00;100742.41;5036469;28;19913;-40
2023/11/20 06:01:39;;;;;;;;;;;;;;;11.00;100.00;100740.72;5038698;28;19983;-41
2023/11/20 06:04:05;;;;;;;;;;;;;;;11.02;100.00;100744.06;5039553;28;20287;-41
2023/11/20 06:06:30;;;;;;;;;;;;;;;11.01;100.00;100745.09;5042637;28;19928;-41
2023/11/20 06:08:56;;;;;;;;;;;;;;;11.01;100.00;100734.31;5036125;28;20355;-41
2023/11/20 06:11:21;;;;;;;;;;;;;;;11.00;100.00;100743.41;5035865;28;19975;-40
2023/11/20 06:13:46;;;;;;;;;;;;;;;11.03;100.00;100737.66;5041652;28;20007;-40
2023/11/20 06:16:12;;;;;;;;;;;;;;;11.03;100.00;100737.66;5047054;28;19932;-40
2023/11/20 06:18:37;;;;;;;;;;;;;;;11.07;100.00;100740.81;5035354;28;20379;-40
2023/11/20 06:21:03;;;;;;;;;;;;;;;11.03;100.00;100745.72;5036538;28;19924;-41
2023/11/20 06:23:28;;;;;;;;;;;;;;;11.03;100.00;100743.03;5052956;28;19925;-41
2023/11/20 06:25:53;;;;;;;;;;;;;;;11.03;100.00;100752.97;5045887;28;20003;-40
2023/11/20 06:28:18;;;;;;;;;;;;;;;11.00;100.00;100759.56;5050068;28;19957;-42
2023/11/20 06:30:44;;;;;;;;;;;;;;;11.00;100.00;100759.56;5049942;28;19920;-40
2023/11/20 06:33:09;;;;;;;;;;;;;;;10.96;100.00;100758.28;5049758;28;19916;-41
2023/11/20 06:35:34;;;;;;;;;;;;;;;10.96;100.00;100758.28;5046235;28;19960;-40
2023/11/20 06:37:59;;;;;;;;;;;;;;;10.99;100.00;100757.91;5050045;28;20363;-41
2023/11/20 06:40:25;;;;;;;;;;;;;;;10.98;100.00;100759.78;5036089;28;19924;-41
2023/11/20 06:42:50;;;;;;;;;;;;;;;10.98;100.00;100762.47;5038927;28;20022;-39
2023/11/20 06:45:16;;;;;;;;;;;;;;;10.97;100.00;100759.94;5034720;28;19909;-41
2023/11/20 06:47:41;;;;;;;;;;;;;;;10.91;100.00;100763.41;5035158;28;19982;-40
2023/11/20 06:50:06;;;;;;;;;;;;;;;10.87;100.00;100765.59;5034371;28;20007;-42
2023/11/20 06:52:32;;;;;;;;;;;;;;;10.82;100.00;100764.50;5052541;28;20081;-40
2023/11/20 06:54:57;;;;;;;;;;;;;;;10.83;100.00;100771.56;5049712;28;19920;-41
2023/11/20 06:57:22;;;;;;;;;;;;;;;10.80;100.00;100769.25;5040753;28;20374;-39
2023/11/20 06:59:48;;;;;;;;;;;;;;;10.80;100.00;100774.63;5047397;28;20392;-40
2023/11/20 07:02:14;;;;;;;;;;;;;;;10.81;100.00;100776.28;5038023;28;19922;-41
2023/11/20 07:04:44;;;;;;;;;;;;;;;10.80;100.00;100775.47;5035324;28;20282;-40
2023/11/20 07:07:09;;;;;;;;;;;;;;;10.82;100.00;100772.56;5035852;28;20180;-41
2023/11/20 07:09:35;;;;;;;;;;;;;;;10.81;100.00;100770.91;5030507;28;19919;-40
2023/11/20 07:12:01;;;;;;;;;;;;;;;10.84;100.00;100778.63;5034000;28;19913;-41
2023/11/20 07:14:26;;;;;;;;;;;;;;;10.88;100.00;100778.06;5041827;28;20453;-40
2023/11/20 07:16:51;;;;;;;;;;;;;;;10.86;100.00;100788.19;5027284;28;19921;-40
2023/11/20 07:19:17;;;;;;;;;;;;;;;10.82;100.00;100789.59;5033729;28;19923;-41
2023/11/20 07:21:44;;;;;;;;;;;;;;;10.80;100.00;100786.22;5040169;28;19917;-41
2023/11/20 07:24:09;;;;;;;;;;;;;;;10.82;100.00;100786.03;5052128;28;20390;-40
2023/11/20 07:26:34;;;;;;;;;;;;;;;10.82;100.00;100783.34;5055329;28;19917;-41
2023/11/20 07:29:00;;;;;;;;;;;;;;;10.75;100.00;100794.84;5040424;28;20310;-41
2023/11/20 07:31:28;;;;;;;;;;;;;;;10.76;100.00;100782.22;5035466;28;20320;-42
2023/11/20 07:33:53;;;;;;;;;;;;;;;10.73;100.00;100786.13;5027451;28;19920;-41
2023/11/20 07:36:19;;;;;;;;;;;;;;;10.73;100.00;100782.59;5048131;28;19917;-42
2023/11/20 07:38:44;;;;;;;;;;;;;;;10.69;100.00;100790.22;5035733;28;19924;-40
2023/11/20 07:41:11;;;;;;;;;;;;;;;10.69;100.00;100790.22;5024479;28;19935;-41
2023/11/20 07:43:36;;;;;;;;;;;;;;;10.67;100.00;100805.72;5019634;28;19917;-40
2023/11/20 07:46:03;;;;;;;;;;;;;;;10.73;100.00;100804.13;5030475;28;19924;-41
2023/11/20 07:48:29;;;;;;;;;;;;;;;10.75;100.00;100805.63;5030579;28;19963;-41
2023/11/20 07:50:54;;;;;;;;;;;;;;;10.72;100.00;100800.63;5028822;28;20321;-41
2023/11/20 07:53:19;;;;;;;;;;;;;;;10.76;100.00;100804.59;5028929;28;20280;-41
2023/11/20 07:55:44;;;;;;;;;;;;;;;10.76;100.00;100793.81;5028407;28;19931;-40
2023/11/20 07:58:09;;;;;;;;;;;;;;;10.75;100.00;100792.16;5026815;28;19917;-42
2023/11/20 08:00:35;;;;;;;;;;;;;;;10.75;100.00;100800.25;5022439;28;19921;-42
2023/11/20 08:03:00;;;;;;;;;;;;;;;10.69;100.00;100798.28;5031935;28;19924;-44
2023/11/20 08:05:25;;;;;;;;;;;;;;;10.75;100.00;100800.25;5030526;28;19925;-41
2023/11/20 08:07:50;;;;;;;;;;;;;;;10.75;100.00;100800.25;5023628;28;19925;-42
2023/11/20 08:10:18;;;;;;;;;;;;;;;10.77;100.00;100786.59;5031249;28;20003;-41
2023/11/20 08:12:43;;;;;;;;;;;;;;;10.75;100.00;100797.53;5032007;28;20036;-41
2023/11/20 08:15:11;;;;;;;;;;;;;;;10.75;100.00;100796.72;5029804;28;19960;-40
2023/11/20 08:17:38;;;;;;;;;;;;;;;10.73;100.00;100786.13;5030544;28;19990;-41
2023/11/20 08:20:06;;;;;;;;;;;;;;;10.72;100.00;100784.47;5028523;28;19972;-41
2023/11/20 08:22:32;;;;;;;;;;;;;;;10.76;100.00;100776.84;5026385;28;19963;-41
2023/11/20 08:24:58;;;;;;;;;;;;;;;10.75;100.00;100777.88;5029033;28;19928;-40
2023/11/20 08:27:23;;;;;;;;;;;;;;;10.74;100.00;100785.13;5029670;28;19924;-42
2023/11/20 08:29:48;;;;;;;;;;;;;;;10.74;100.00;100784.25;5024322;28;20251;-41
2023/11/20 08:32:13;;;;;;;;;;;;;;;10.81;100.00;100792.44;5026226;28;20404;-42
2023/11/20 08:34:39;;;;;;;;;;;;;;;10.92;100.00;100795.50;5025479;28;19928;-43
2023/11/20 08:37:04;;;;;;;;;;;;;;;10.91;100.00;100798.41;5026100;28;20009;-41
2023/11/20 08:39:31;;;;;;;;;;;;;;;10.93;100.00;100791.81;5023308;28;19917;-42
2023/11/20 08:41:57;;;;;;;;;;;;;;;10.88;100.00;100788.00;5025820;28;19921;-41
2023/11/20 08:44:23;;;;;;;;;;;;;;;10.89;100.00;100784.28;5024738;28;19932;-40
2023/11/20 08:46:48;;;;;;;;;;;;;;;10.87;100.00;100789.84;5028367;28;19925;-41
2023/11/20 08:49:14;;;;;;;;;;;;;;;10.87;100.00;100780.94;5026314;28;19925;-40
2023/11/20 08:51:39;;;;;;;;;;;;;;;10.75;100.00;100785.94;5025243;28;19924;-41
2023/11/20 08:54:05;;;;;;;;;;;;;;;10.67;100.00;100784.19;5024510;28;20074;-42
2023/11/20 08:56:31;;;;;;;;;;;;;;;10.65;100.00;100788.91;5028668;28;19924;-44
2023/11/20 08:58:56;;;;;;;;;;;;;;;10.64;100.00;100792.63;5032927;28;19939;-42
2023/11/20 09:01:31;;;;;;;;;;;;;;;10.65;100.00;100780.00;5029538;28;20295;-42
2023/11/20 09:03:56;;;;;;;;;;;;;;;10.69;100.00;100783.97;5031415;28;19944;-42
2023/11/20 09:06:21;;;;;;;;;;;;;;;10.71;100.00;100795.41;5027185;28;20280;-41
2023/11/20 09:08:47;;;;;;;;;;;;;;;10.65;100.00;100799.66;5030143;28;19921;-41
2023/11/20 09:11:12;;;;;;;;;;;;;;;10.60;100.00;100799.38;5027960;28;20268;-40
2023/11/20 09:13:37;;;;;;;;;;;;;;;10.58;100.00;100796.03;5028336;28;20003;-41
2023/11/20 09:16:03;;;;;;;;;;;;;;;10.53;100.00;100796.59;5031554;28;20636;-42
2023/11/20 09:18:28;;;;;;;;;;;;;;;10.41;100.00;100798.03;5035494;28;19919;-42
2023/11/20 09:20:53;;;;;;;;;;;;;;;10.38;100.00;100793.03;5033874;28;19917;-43
2023/11/20 09:23:19;;;;;;;;;;;;;;;10.36;100.00;100805.00;5026674;28;19924;-44
2023/11/20 09:25:44;;;;;;;;;;;;;;;10.27;100.00;100807.75;5027239;28;20017;-44
2023/11/20 09:28:09;;;;;;;;;;;;;;;10.18;100.00;100808.78;5028137;28;19991;-44
2023/11/20 09:30:34;;;;;;;;;;;;;;;10.22;100.00;100814.66;5023984;28;19941;-43
2023/11/20 09:33:00;;;;;;;;;;;;;;;10.20;100.00;100812.16;5027946;28;20043;-42
2023/11/20 09:35:26;;;;;;;;;;;;;;;10.21;100.00;100811.13;5026068;28;20016;-41
2023/11/20 09:37:51;;;;;;;;;;;;;;;10.28;100.00;100806.72;5029947;28;19939;-41
2023/11/20 09:40:17;;;;;;;;;;;;;;;10.37;100.00;100804.78;5029854;28;19924;-42
2023/11/20 09:42:43;;;;;;;;;;;;;;;10.46;100.00;100801.03;5020980;28;19917;-41
2023/11/20 09:45:13;;;;;;;;;;;;;;;10.58;100.00;100809.47;5027136;28;19920;-41
2023/11/20 09:47:39;;;;;;;;;;;;;;;10.67;100.00;100811.09;5026895;28;19955;-40
2023/11/20 09:50:04;;;;;;;;;;;;;;;10.74;100.00;100817.41;5027132;28;19956;-41
2023/11/20 09:52:32;;;;;;;;;;;;;;;10.83;100.00;100814.66;5030959;28;19913;-42
2023/11/20 09:54:57;;;;;;;;;;;;;;;10.99;100.00;100817.16;5032937;28;19975;-42
2023/11/20 09:57:26;;;;;;;;;;;;;;;11.10;100.00;100818.53;5031572;28;19913;-42
2023/11/20 09:59:51;;;;;;;;;;;;;;;10.93;100.00;100831.38;5034924;28;20028;-41
2023/11/20 10:02:17;;;;;;;;;;;;;;;10.74;100.00;100803.09;5032350;28;20027;-42
2023/11/20 10:04:44;;;;;;;;;;;;;;;10.49;100.00;100811.41;5033346;28;19928;-43
2023/11/20 10:07:09;;;;;;;;;;;;;;;10.44;100.00;100786.09;5029508;28;20005;-43
2023/11/20 10:09:34;;;;;;;;;;;;;;;10.31;100.00;100787.53;5031265;28;20015;-43
2023/11/20 10:12:02;;;;;;;;;;;;;;;10.24;100.00;100773.13;5023602;28;20008;-43
2023/11/20 10:14:27;;;;;;;;;;;;;;;10.14;100.00;100780.59;5022306;28;19917;-42
2023/11/20 10:16:53;;;;;;;;;;;;;;;10.13;100.00;100778.09;5023879;28;19983;-41
2023/11/20 10:19:19;;;;;;;;;;;;;;;9.96;100.00;100778.22;5026191;28;20016;-43
2023/11/20 10:21:46;;;;;;;;;;;;;;;9.84;100.00;100775.09;5029248;28;19988;-42
2023/11/20 10:24:11;;;;;;;;;;;;;;;9.87;100.00;100773.91;5023440;28;20301;-41
2023/11/20 10:26:39;;;;;;;;;;;;;;;9.82;100.00;100776.28;5033054;28;20016;-42
2023/11/20 10:29:09;;;;;;;;;;;;;;;9.80;100.00;100778.34;5033022;28;19913;-42
2023/11/20 10:31:34;;;;;;;;;;;;;;;9.82;100.00;100776.28;5035118;28;19917;-41
2023/11/20 10:34:06;;;;;;;;;;;;;;;9.86;100.00;100769.56;5025238;28;19922;-41
2023/11/20 10:36:32;;;;;;;;;;;;;;;9.88;100.00;100768.34;5029640;28;20061;-42
2023/11/20 10:38:58;;;;;;;;;;;;;;;9.95;100.00;100770.31;5029761;28;19924;-42
2023/11/20 10:41:23;;;;;;;;;;;;;;;9.94;100.00;100764.09;5020065;28;19925;-43
2023/11/20 10:43:48;;;;;;;;;;;;;;;10.08;100.00;100768.72;5028183;28;20016;-41
2023/11/20 10:46:14;;;;;;;;;;;;;;;10.48;100.00;100764.03;5031413;28;20059;-41
2023/11/20 10:48:39;;;;;;;;;;;;;;;10.86;100.00;100761.25;5030736;28;19956;-41
2023/11/20 10:51:06;;;;;;;;;;;;;;;11.31;100.00;100743.19;5028371;28;19913;-40
2023/11/20 10:53:31;;;;;;;;;;;;;;;11.90;100.00;100738.66;5031077;28;20018;-41
2023/11/20 10:55:56;;;;;;;;;;;;;;;12.42;100.00;100732.84;5017049;28;19956;-40
2023/11/20 10:58:21;;;;;;;;;;;;;;;12.72;100.00;100727.25;5029074;28;19944;-41
2023/11/20 11:00:47;;;;;;;;;;;;;;;12.81;100.00;100720.63;5024734;28;20035;-41
2023/11/20 11:03:14;;;;;;;;;;;;;;;13.23;100.00;100713.34;5031250;28;19948;-40
2023/11/20 11:05:43;;;;;;;;;;;;;;;13.50;100.00;100706.16;5032482;28;19919;-42
2023/11/20 11:08:09;;;;;;;;;;;;;;;13.72;100.00;100712.25;5029649;28;19928;-42
2023/11/20 11:10:40;;;;;;;;;;;;;;;13.95;100.00;100711.84;5031878;28;20454;-42
2023/11/20 11:13:07;;;;;;;;;;;;;;;13.86;100.00;100707.69;5019951;28;19917;-41
2023/11/20 11:15:32;;;;;;;;;;;;;;;13.36;100.00;100704.47;5026885;28;20224;-42
2023/11/20 11:17:57;;;;;;;;;;;;;;;13.26;100.00;100707.56;5027252;28;20003;-41
2023/11/20 11:20:23;;;;;;;;;;;;;;;12.68;100.00;100704.38;5024079;28;20360;-41
2023/11/20 11:22:54;;;;;;;;;;;;;;;12.41;100.00;100706.06;5024399;28;20023;-40
2023/11/20 11:25:21;;;;;;;;;;;;;;;12.31;100.00;100698.31;5031807;28;20008;-41
2023/11/20 11:27:51;;;;;;;;;;;;;;;12.41;100.00;100693.41;5016999;28;19917;-41
2023/11/20 11:30:16;;;;;;;;;;;;;;;12.76;100.00;100704.19;5035527;28;19917;-41
2023/11/20 11:33:07;;;;;;;;;;;;;;;12.85;100.00;100689.50;5048090;28;19924;-41
2023/11/20 11:35:52;;;;;;;;;;;;;;;13.38;100.00;100691.59;5052656;28;19913;-41
2023/11/20 11:38:21;;;;;;;;;;;;;;;14.09;100.00;100691.06;5054053;28;19932;-40
2023/11/20 11:41:04;;;;;;;;;;;;;;;14.79;100.00;100687.81;5042523;28;20053;-40
2023/11/20 11:43:31;;;;;;;;;;;;;;;15.46;100.00;100686.47;5014047;28;19913;-41
2023/11/20 11:45:57;;;;;;;;;;;;;;;15.64;100.00;100682.19;5020447;28;19944;-40
2023/11/20 11:48:24;;;;;;;;;;;;;;;15.45;100.00;100679.38;5036295;28;20296;-40
2023/11/20 11:50:49;;;;;;;;;;;;;;;14.87;100.00;100682.16;5042422;28;19955;-41
2023/11/20 11:53:14;;;;;;;;;;;;;;;14.00;100.00;100686.88;5036033;28;19959;-41
2023/11/20 11:55:40;;;;;;;;;;;;;;;13.04;100.00;100687.09;5050070;28;19938;-41
2023/11/20 11:58:08;;;;;;;;;;;;;;;12.83;100.00;100680.78;5039021;28;19916;-40
2023/11/20 12:00:33;;;;;;;;;;;;;;;12.64;100.00;100685.03;5038263;28;20016;-40
2023/11/20 12:03:08;;;;;;;;;;;;;;;12.45;100.00;100688.44;5047027;28;19952;-40
2023/11/20 12:05:52;;;;;;;;;;;;;;;12.14;100.00;100694.22;5049895;28;19979;-41
2023/11/20 12:08:19;;;;;;;;;;;;;;;11.90;100.00;100690.09;5045667;28;19923;-41
2023/11/20 12:10:51;;;;;;;;;;;;;;;11.65;100.00;100694.00;5051560;28;19967;-40
2023/11/20 12:13:20;;;;;;;;;;;;;;;11.58;100.00;100692.28;5040658;28;19917;-41
2023/11/20 12:15:47;;;;;;;;;;;;;;;11.49;100.00;100691.56;5042859;28;19920;-39
2023/11/20 12:18:13;;;;;;;;;;;;;;;11.52;100.00;100693.03;5041611;28;19924;-41
2023/11/20 12:20:42;;;;;;;;;;;;;;;11.71;100.00;100691.56;5032749;28;19913;-46
2023/11/20 12:23:15;;;;;;;;;;;;;;;12.07;100.00;100702.28;5032102;28;19917;-42